createdAt,value
2022-12-12T00:04:07.678Z,58.65
2022-12-12T00:09:01.596Z,58.95
2022-12-12T00:13:55.046Z,58.86
2022-12-12T00:18:48.404Z,58.74
2022-12-12T00:23:41.586Z,58.62
2022-12-12T00:28:35.713Z,58.54
2022-12-12T00:33:29.267Z,58.81
2022-12-12T00:38:24.446Z,58.34
2022-12-12T00:43:18.422Z,58.48
2022-12-12T00:48:13.070Z,58.51
2022-12-12T00:53:07.219Z,58.40
2022-12-12T00:58:00.732Z,58.29
2022-12-12T01:02:57.716Z,58.39
2022-12-12T01:07:51.253Z,58.34
2022-12-12T01:12:44.244Z,58.19
2022-12-12T01:17:38.591Z,58.33
2022-12-12T01:22:32.376Z,58.47
2022-12-12T01:27:25.951Z,58.09
2022-12-12T01:32:19.744Z,57.94
2022-12-12T01:37:13.748Z,58.08
2022-12-12T01:42:15.261Z,58.00
2022-12-12T01:47:09.105Z,58.14
2022-12-12T01:52:08.682Z,57.99
2022-12-12T01:57:07.251Z,57.91
2022-12-12T02:02:00.576Z,57.79
2022-12-12T02:06:55.485Z,57.65
2022-12-12T02:11:51.571Z,57.94
2022-12-12T02:16:53.857Z,57.90
2022-12-12T02:21:52.791Z,57.89
2022-12-12T02:27:26.308Z,57.96
2022-12-12T02:32:40.659Z,57.67
2022-12-12T02:37:49.074Z,57.54
2022-12-12T02:42:58.849Z,57.37
2022-12-12T02:48:02.549Z,57.18
2022-12-12T02:52:56.449Z,57.35
2022-12-12T02:57:52.482Z,57.50
2022-12-12T03:03:34.269Z,57.39
2022-12-12T03:08:57.658Z,56.97
2022-12-12T03:13:53.370Z,57.17
2022-12-12T03:19:13.190Z,57.03
2022-12-12T03:24:29.042Z,56.85
2022-12-12T03:29:29.150Z,56.87
2022-12-12T03:34:30.781Z,56.88
2022-12-12T03:39:25.911Z,56.79
2022-12-12T03:44:34.484Z,56.47
2022-12-12T03:49:50.520Z,56.51
2022-12-12T03:54:51.898Z,56.44
2022-12-12T04:00:07.866Z,56.32
2022-12-12T04:05:08.587Z,56.21
2022-12-12T04:10:20.827Z,56.25
2022-12-12T04:15:47.523Z,56.20
2022-12-12T04:21:13.444Z,56.11
2022-12-12T04:26:40.605Z,56.37
2022-12-12T04:31:38.635Z,56.06
2022-12-12T04:36:34.863Z,55.91
2022-12-12T04:41:32.336Z,56.19
2022-12-12T04:46:28.942Z,55.92
2022-12-12T04:51:27.906Z,55.72
2022-12-12T04:56:29.121Z,55.72
2022-12-12T05:01:24.815Z,55.58
2022-12-12T05:06:22.906Z,55.46
2022-12-12T05:11:19.327Z,55.66
2022-12-12T05:16:19.631Z,55.57
2022-12-12T05:21:13.341Z,55.22
2022-12-12T05:26:30.085Z,55.38
2022-12-12T05:31:23.519Z,55.43
2022-12-12T05:36:17.473Z,55.30
2022-12-12T05:41:11.854Z,54.93
2022-12-12T05:46:06.886Z,55.13
2022-12-12T05:51:04.515Z,55.12
2022-12-12T05:55:57.862Z,55.16
2022-12-12T06:00:52.450Z,54.95
2022-12-12T06:05:47.014Z,55.02
2022-12-12T06:10:40.938Z,54.87
2022-12-12T06:15:34.946Z,54.77
2022-12-12T06:20:30.656Z,54.72
2022-12-12T06:25:23.497Z,54.35
2022-12-12T06:30:17.664Z,54.40
2022-12-12T06:35:12.091Z,54.43
2022-12-12T06:40:07.739Z,54.33
2022-12-12T06:45:01.040Z,54.34
2022-12-12T06:49:55.232Z,54.59
2022-12-12T06:54:49.251Z,54.40
2022-12-12T06:59:43.408Z,54.40
2022-12-12T07:04:37.526Z,54.41
2022-12-12T07:09:31.568Z,53.97
2022-12-12T07:14:26.128Z,52.55
2022-12-12T07:19:20.065Z,51.81
2022-12-12T07:24:15.934Z,51.68
2022-12-12T07:29:10.044Z,51.56
2022-12-12T07:34:03.879Z,51.05
2022-12-12T07:38:57.365Z,51.12
2022-12-12T07:43:53.042Z,51.09
2022-12-12T07:48:46.323Z,51.50
2022-12-12T07:53:40.118Z,51.14
2022-12-12T07:58:34.179Z,51.24
2022-12-12T08:03:27.435Z,50.23
2022-12-12T08:08:20.747Z,48.28
2022-12-12T08:13:14.203Z,48.06
2022-12-12T08:18:09.223Z,46.63
2022-12-12T08:23:03.725Z,46.11
2022-12-12T08:27:57.079Z,46.34
2022-12-12T08:32:50.575Z,46.06
2022-12-12T08:37:44.545Z,46.01
2022-12-12T08:42:36.689Z,45.63
2022-12-12T08:47:30.173Z,45.33
2022-12-12T08:52:23.153Z,44.70
2022-12-12T08:57:18.430Z,44.91
2022-12-12T09:02:13.592Z,44.83
2022-12-12T09:07:08.780Z,45.70
2022-12-12T09:12:02.488Z,45.04
2022-12-12T09:16:55.194Z,47.13
2022-12-12T09:21:48.564Z,47.16
2022-12-12T09:26:42.056Z,47.52
2022-12-12T09:31:36.331Z,47.53
2022-12-12T09:36:29.630Z,47.70
2022-12-12T09:41:31.087Z,48.11
2022-12-12T09:46:33.126Z,48.36
2022-12-12T09:51:26.088Z,48.17
2022-12-12T09:56:37.737Z,48.64
2022-12-12T10:01:32.879Z,48.53
2022-12-12T10:06:39.139Z,48.82
2022-12-12T10:11:52.117Z,49.10
2022-12-12T10:16:50.072Z,49.14
2022-12-12T10:21:48.742Z,48.94
2022-12-12T10:26:45.814Z,49.27
2022-12-12T10:31:44.993Z,49.70
2022-12-12T10:36:43.690Z,49.39
2022-12-12T10:41:38.755Z,49.22
2022-12-12T10:46:50.881Z,49.33
2022-12-12T10:51:47.018Z,49.62
2022-12-12T10:57:06.031Z,49.18
2022-12-12T11:02:10.136Z,49.52
2022-12-12T11:07:04.447Z,49.56
2022-12-12T11:12:09.143Z,49.42
2022-12-12T11:17:03.039Z,49.94
2022-12-12T11:22:03.083Z,49.78
2022-12-12T11:27:06.093Z,49.48
2022-12-12T11:32:00.587Z,49.62
2022-12-12T11:36:54.648Z,49.53
2022-12-12T11:42:16.193Z,49.58
2022-12-12T11:47:39.156Z,49.44
2022-12-12T11:52:35.378Z,49.66
2022-12-12T11:57:41.845Z,49.36
2022-12-12T12:02:55.756Z,49.34
2022-12-12T12:07:56.482Z,49.55
2022-12-12T12:13:12.390Z,49.63
2022-12-12T12:18:05.226Z,49.30
2022-12-12T12:23:25.942Z,49.43
2022-12-12T12:28:41.041Z,49.38
2022-12-12T12:34:00.027Z,49.42
2022-12-12T12:39:05.289Z,49.55
2022-12-12T12:44:19.033Z,49.13
2022-12-12T12:49:27.142Z,49.37
2022-12-12T12:54:22.855Z,49.45
2022-12-12T12:59:25.493Z,49.70
2022-12-12T13:04:35.325Z,49.59
2022-12-12T13:10:03.147Z,49.23
2022-12-12T13:15:03.246Z,50.10
2022-12-12T13:19:57.943Z,47.11
2022-12-12T13:25:26.558Z,39.39
2022-12-12T13:30:43.017Z,38.07
2022-12-12T13:35:42.976Z,37.95
2022-12-12T13:40:44.374Z,38.20
2022-12-12T13:45:41.136Z,37.70
2022-12-12T13:50:34.633Z,37.50
2022-12-12T13:55:28.146Z,37.30
2022-12-12T14:00:21.156Z,37.13
2022-12-12T14:05:16.188Z,36.92
2022-12-12T14:10:34.474Z,36.89
2022-12-12T14:15:47.064Z,37.04
2022-12-12T14:20:43.231Z,37.34
2022-12-12T14:25:40.307Z,37.51
2022-12-12T14:30:54.184Z,37.27
2022-12-12T14:35:55.733Z,42.74
2022-12-12T14:40:53.755Z,43.62
2022-12-12T14:45:53.853Z,44.11
2022-12-12T14:50:55.801Z,44.35
2022-12-12T14:55:58.033Z,45.72
2022-12-12T15:00:57.383Z,45.73
2022-12-12T15:06:11.744Z,45.99
2022-12-12T15:11:05.943Z,46.19
2022-12-12T15:15:59.161Z,46.30
2022-12-12T15:20:58.071Z,46.03
2022-12-12T15:25:57.050Z,46.22
2022-12-12T15:30:58.476Z,46.20
2022-12-12T15:36:01.917Z,46.36
2022-12-12T15:40:58.953Z,46.11
2022-12-12T15:46:01.133Z,46.43
2022-12-12T15:50:59.923Z,46.26
2022-12-12T15:56:08.305Z,46.21
2022-12-12T16:01:26.253Z,46.20
2022-12-12T16:06:19.757Z,46.12
2022-12-12T16:11:39.949Z,46.02
2022-12-12T16:16:41.609Z,46.12
2022-12-12T16:21:43.091Z,46.26
2022-12-12T16:26:37.351Z,46.33
2022-12-12T16:31:31.338Z,46.32
2022-12-12T16:36:25.602Z,46.53
2022-12-12T16:41:19.787Z,46.53
2022-12-12T16:46:34.107Z,46.39
2022-12-12T16:51:28.883Z,46.75
2022-12-12T16:56:22.295Z,46.77
2022-12-12T17:01:17.350Z,46.86
2022-12-12T17:06:10.941Z,46.56
2022-12-12T17:11:10.015Z,47.03
2022-12-12T17:16:04.359Z,46.78
2022-12-12T17:20:58.457Z,47.10
2022-12-12T17:25:57.251Z,46.80
2022-12-12T17:30:55.343Z,47.16
2022-12-12T17:36:05.096Z,47.07
2022-12-12T17:40:59.080Z,47.14
2022-12-12T17:46:00.131Z,47.31
2022-12-12T17:50:59.014Z,47.43
2022-12-12T17:56:00.915Z,47.58
2022-12-12T18:00:55.578Z,47.41
2022-12-12T18:05:49.591Z,47.42
2022-12-12T18:10:43.756Z,47.68
2022-12-12T18:15:37.822Z,47.60
2022-12-12T18:20:31.532Z,47.44
2022-12-12T18:25:25.306Z,47.83
2022-12-12T18:30:20.582Z,48.66
2022-12-12T18:35:13.465Z,49.89
2022-12-12T18:40:10.352Z,49.63
2022-12-12T18:45:04.863Z,48.22
2022-12-12T18:49:59.146Z,49.86
2022-12-12T18:54:53.131Z,50.14
2022-12-12T18:59:46.854Z,49.78
2022-12-12T19:04:40.264Z,50.56
2022-12-12T19:09:33.526Z,51.01
2022-12-12T19:14:35.692Z,51.27
2022-12-12T19:19:33.934Z,51.27
2022-12-12T19:24:27.376Z,51.38
2022-12-12T19:29:21.575Z,51.35
2022-12-12T19:34:16.828Z,51.70
2022-12-12T19:39:11.970Z,51.80
2022-12-12T19:44:08.822Z,51.66
2022-12-12T19:49:10.029Z,52.17
2022-12-12T19:54:05.720Z,52.61
2022-12-12T19:58:59.658Z,53.30
2022-12-12T20:04:17.814Z,53.55
2022-12-12T20:09:12.220Z,53.43
2022-12-12T20:14:06.360Z,53.22
2022-12-12T20:19:07.192Z,52.97
2022-12-12T20:24:01.043Z,53.29
2022-12-12T20:28:57.912Z,53.13
2022-12-12T20:33:55.092Z,52.99
2022-12-12T20:38:49.416Z,53.25
2022-12-12T20:43:42.782Z,52.91
2022-12-12T20:48:37.479Z,52.99
2022-12-12T20:53:36.374Z,52.81
2022-12-12T20:58:30.555Z,52.71
2022-12-12T21:03:24.083Z,52.64
2022-12-12T21:08:20.800Z,52.73
2022-12-12T21:13:15.447Z,52.32
2022-12-12T21:18:08.025Z,52.60
2022-12-12T21:23:02.388Z,52.51
2022-12-12T21:27:55.910Z,52.50
2022-12-12T21:32:49.355Z,52.44
2022-12-12T21:37:42.697Z,52.49
2022-12-12T21:42:36.233Z,52.61
2022-12-12T21:47:29.700Z,52.77
2022-12-12T21:52:22.879Z,52.71
2022-12-12T21:57:22.000Z,52.49
2022-12-12T22:02:18.470Z,52.36
2022-12-12T22:07:12.568Z,52.64
2022-12-12T22:12:06.454Z,52.49
2022-12-12T22:17:03.884Z,52.13
2022-12-12T22:21:57.360Z,52.29
2022-12-12T22:26:50.806Z,52.07
2022-12-12T22:31:45.806Z,52.07
2022-12-12T22:36:40.331Z,51.93
2022-12-12T22:41:33.816Z,51.72
2022-12-12T22:46:28.493Z,51.87
2022-12-12T22:51:24.230Z,51.69
2022-12-12T22:56:18.015Z,51.93
2022-12-12T23:01:17.418Z,51.68
2022-12-12T23:06:24.019Z,51.75
2022-12-12T23:11:17.909Z,51.70
2022-12-12T23:16:31.987Z,51.69
2022-12-12T23:21:26.410Z,51.71
2022-12-12T23:26:22.570Z,51.79
2022-12-12T23:31:30.879Z,51.51
2022-12-12T23:36:25.737Z,51.70
2022-12-12T23:41:19.038Z,51.81
2022-12-12T23:46:29.015Z,51.89
2022-12-12T23:51:28.423Z,51.42
2022-12-12T23:56:22.870Z,51.81
